createdAt,value
2018-09-30T00:00:29.468Z,7.36
2018-09-30T00:02:56.995Z,7.31
2018-09-30T00:05:24.554Z,7.18
2018-09-30T00:07:52.390Z,6.99
2018-09-30T00:10:19.918Z,7.02
2018-09-30T00:12:47.481Z,6.95
2018-09-30T00:15:15.074Z,6.96
2018-09-30T00:17:42.613Z,6.92
2018-09-30T00:20:10.147Z,6.89
2018-09-30T00:22:37.705Z,6.83
2018-09-30T00:25:10.986Z,6.80
2018-09-30T00:27:38.531Z,6.76
2018-09-30T00:30:06.097Z,6.76
2018-09-30T00:32:33.619Z,6.68
2018-09-30T00:35:01.185Z,6.61
2018-09-30T00:37:28.770Z,6.74
2018-09-30T00:39:56.299Z,6.50
2018-09-30T00:42:23.881Z,6.69
2018-09-30T00:44:51.413Z,6.83
2018-09-30T00:47:18.963Z,6.88
2018-09-30T00:49:46.502Z,6.79
2018-09-30T00:52:14.019Z,6.79
2018-09-30T00:54:42.650Z,6.78
2018-09-30T00:57:10.161Z,6.66
2018-09-30T00:59:37.694Z,6.54
2018-09-30T01:02:05.294Z,6.41
2018-09-30T01:04:32.829Z,6.46
2018-09-30T01:07:00.354Z,6.48
2018-09-30T01:09:27.974Z,6.37
2018-09-30T01:11:55.514Z,6.37
2018-09-30T01:14:23.047Z,6.33
2018-09-30T01:16:50.590Z,6.49
2018-09-30T01:19:18.165Z,6.37
2018-09-30T01:21:45.751Z,6.26
2018-09-30T01:24:13.294Z,6.30
2018-09-30T01:26:40.805Z,6.56
2018-09-30T01:29:08.390Z,6.50
2018-09-30T01:31:35.904Z,6.47
2018-09-30T01:34:03.475Z,6.53
2018-09-30T01:36:31.603Z,6.52
2018-09-30T01:38:59.149Z,6.53
2018-09-30T01:41:26.718Z,6.49
2018-09-30T01:43:54.278Z,6.38
2018-09-30T01:46:21.850Z,6.28
2018-09-30T01:48:49.390Z,6.30
2018-09-30T01:51:16.946Z,6.18
2018-09-30T01:53:44.501Z,6.12
2018-09-30T01:56:12.054Z,6.02
2018-09-30T01:58:39.583Z,6.16
2018-09-30T02:01:07.114Z,6.03
2018-09-30T02:03:34.714Z,6.17
2018-09-30T02:06:02.281Z,6.24
2018-09-30T02:08:29.855Z,6.19
2018-09-30T02:10:57.419Z,6.19
2018-09-30T02:13:24.966Z,6.16
2018-09-30T02:15:52.507Z,6.02
2018-09-30T02:18:20.023Z,6.07
2018-09-30T02:20:47.585Z,6.02
2018-09-30T02:23:15.094Z,6.04
2018-09-30T02:25:42.684Z,6.13
2018-09-30T02:28:10.225Z,6.13
2018-09-30T02:30:37.790Z,6.18
2018-09-30T02:33:05.634Z,6.06
2018-09-30T02:35:33.143Z,6.03
2018-09-30T02:38:00.674Z,5.96
2018-09-30T02:40:28.234Z,5.89
2018-09-30T02:42:55.765Z,5.88
2018-09-30T02:45:23.307Z,5.91
2018-09-30T02:47:50.846Z,5.89
2018-09-30T02:50:18.366Z,5.92
2018-09-30T02:52:46.091Z,5.84
2018-09-30T02:55:13.608Z,5.75
2018-09-30T02:57:41.174Z,5.77
2018-09-30T03:00:08.855Z,5.73
2018-09-30T03:02:36.394Z,5.74
2018-09-30T03:05:04.003Z,5.74
2018-09-30T03:07:37.127Z,5.78
2018-09-30T03:10:04.760Z,5.90
2018-09-30T03:12:32.318Z,5.84
2018-09-30T03:14:59.847Z,6.07
2018-09-30T03:17:27.405Z,5.91
2018-09-30T03:19:54.934Z,5.77
2018-09-30T03:22:22.466Z,5.79
2018-09-30T03:24:49.986Z,5.74
2018-09-30T03:27:17.554Z,5.63
2018-09-30T03:29:45.100Z,5.62
2018-09-30T03:32:12.723Z,5.60
2018-09-30T03:34:40.247Z,5.62
2018-09-30T03:37:07.803Z,5.63
2018-09-30T03:39:35.398Z,5.55
2018-09-30T03:42:02.914Z,5.51
2018-09-30T03:44:30.460Z,5.51
2018-09-30T03:46:58.034Z,5.53
2018-09-30T03:49:25.547Z,5.53
2018-09-30T03:51:53.141Z,5.38
2018-09-30T03:54:20.674Z,5.35
2018-09-30T03:56:48.289Z,5.29
2018-09-30T03:59:15.785Z,5.27
2018-09-30T04:01:43.311Z,5.30
2018-09-30T04:04:10.862Z,5.35
2018-09-30T04:06:38.396Z,5.35
2018-09-30T04:09:06.663Z,5.35
2018-09-30T04:11:34.188Z,5.37
2018-09-30T04:14:01.718Z,5.31
2018-09-30T04:16:29.256Z,5.29
2018-09-30T04:18:57.133Z,5.27
2018-09-30T04:21:24.650Z,5.28
2018-09-30T04:23:56.518Z,5.31
2018-09-30T04:26:24.066Z,5.47
2018-09-30T04:28:51.627Z,5.30
2018-09-30T04:31:19.166Z,5.28
2018-09-30T04:33:46.802Z,5.21
2018-09-30T04:36:14.358Z,5.17
2018-09-30T04:38:41.915Z,5.17
2018-09-30T04:41:09.457Z,5.13
2018-09-30T04:43:37.023Z,5.14
2018-09-30T04:46:04.546Z,5.09
2018-09-30T04:48:32.083Z,5.09
2018-09-30T04:51:00.013Z,5.07
2018-09-30T04:53:27.540Z,5.04
2018-09-30T04:55:55.134Z,5.04
2018-09-30T04:58:22.677Z,5.00
2018-09-30T05:00:50.246Z,4.89
2018-09-30T05:03:17.804Z,4.88
2018-09-30T05:05:45.396Z,4.94
2018-09-30T05:08:12.934Z,5.00
2018-09-30T05:10:40.455Z,4.96
2018-09-30T05:13:08.302Z,4.93
2018-09-30T05:15:35.900Z,4.96
2018-09-30T05:18:03.440Z,4.94
2018-09-30T05:20:30.991Z,4.95
2018-09-30T05:22:58.539Z,5.07
2018-09-30T05:25:26.063Z,5.06
2018-09-30T05:27:53.594Z,5.09
2018-09-30T05:30:21.122Z,5.14
2018-09-30T05:32:48.677Z,5.16
2018-09-30T05:35:16.214Z,5.09
2018-09-30T05:37:43.750Z,5.12
2018-09-30T05:40:11.364Z,5.15
2018-09-30T05:42:38.913Z,5.17
2018-09-30T05:45:06.815Z,5.12
2018-09-30T05:47:34.398Z,5.21
2018-09-30T05:50:01.938Z,5.23
2018-09-30T05:52:29.611Z,5.28
2018-09-30T05:54:57.142Z,5.50
2018-09-30T05:57:24.766Z,5.72
2018-09-30T05:59:52.291Z,5.90
2018-09-30T06:02:19.837Z,6.08
2018-09-30T06:04:47.391Z,6.34
2018-09-30T06:07:14.973Z,6.62
2018-09-30T06:09:42.519Z,6.96
2018-09-30T06:12:10.117Z,7.31
2018-09-30T06:14:37.646Z,7.62
2018-09-30T06:17:05.228Z,7.96
2018-09-30T06:19:32.777Z,8.16
2018-09-30T06:22:00.462Z,8.18
2018-09-30T06:24:27.997Z,8.49
2018-09-30T06:26:55.663Z,8.69
2018-09-30T06:29:23.226Z,8.87
2018-09-30T06:31:51.081Z,9.18
2018-09-30T06:34:18.591Z,9.51
2018-09-30T06:36:46.155Z,9.93
2018-09-30T06:39:13.693Z,10.10
2018-09-30T06:41:41.249Z,10.16
2018-09-30T06:44:08.981Z,10.14
2018-09-30T06:46:36.524Z,10.52
2018-09-30T06:49:04.054Z,10.65
2018-09-30T06:51:31.639Z,10.83
2018-09-30T06:53:59.183Z,11.14
2018-09-30T06:56:26.750Z,11.33
2018-09-30T06:58:54.267Z,11.40
2018-09-30T07:01:21.807Z,11.35
2018-09-30T07:03:49.382Z,11.57
2018-09-30T07:06:16.932Z,11.79
2018-09-30T07:08:44.485Z,12.23
2018-09-30T07:11:12.073Z,12.64
2018-09-30T07:13:39.629Z,12.93
2018-09-30T07:16:07.183Z,13.39
2018-09-30T07:18:34.722Z,14.00
2018-09-30T07:21:02.263Z,15.06
2018-09-30T07:23:29.799Z,15.95
2018-09-30T07:25:57.442Z,16.89
2018-09-30T07:28:24.982Z,17.85
2018-09-30T07:30:52.574Z,18.56
2018-09-30T07:33:20.346Z,18.68
2018-09-30T07:35:47.866Z,18.51
2018-09-30T07:38:15.408Z,19.75
2018-09-30T07:40:42.966Z,20.45
2018-09-30T07:43:10.562Z,20.90
2018-09-30T07:45:38.123Z,21.37
2018-09-30T07:48:05.718Z,21.53
2018-09-30T07:50:33.270Z,22.48
2018-09-30T07:53:00.975Z,22.31
2018-09-30T07:55:28.535Z,23.00
2018-09-30T07:57:56.070Z,23.08
2018-09-30T08:00:23.645Z,23.28
2018-09-30T08:02:51.205Z,23.69
2018-09-30T08:05:18.758Z,23.94
2018-09-30T08:07:46.330Z,24.34
2018-09-30T08:10:13.895Z,25.12
2018-09-30T08:12:42.433Z,25.16
2018-09-30T08:15:09.996Z,26.08
2018-09-30T08:17:37.558Z,25.06
2018-09-30T08:20:05.514Z,24.89
2018-09-30T08:22:33.082Z,25.00
2018-09-30T08:25:00.642Z,25.37
2018-09-30T08:27:28.224Z,24.83
2018-09-30T08:29:56.038Z,25.44
2018-09-30T08:32:23.601Z,26.03
2018-09-30T08:34:51.235Z,26.58
2018-09-30T08:37:24.650Z,26.92
2018-09-30T08:39:52.308Z,26.89
2018-09-30T08:42:19.798Z,27.33
2018-09-30T08:44:47.353Z,27.58
2018-09-30T08:47:15.002Z,28.31
2018-09-30T08:49:42.475Z,28.49
2018-09-30T08:52:10.039Z,27.23
2018-09-30T08:54:37.595Z,28.42
2018-09-30T08:57:05.153Z,28.89
2018-09-30T08:59:32.712Z,29.73
2018-09-30T09:02:00.267Z,29.69
2018-09-30T09:04:27.815Z,29.84
2018-09-30T09:06:55.455Z,30.33
2018-09-30T09:09:23.016Z,29.43
2018-09-30T09:11:50.564Z,30.63
2018-09-30T09:14:18.126Z,31.15
2018-09-30T09:16:45.683Z,32.17
2018-09-30T09:19:13.247Z,32.72
2018-09-30T09:21:41.140Z,33.75
2018-09-30T09:24:08.686Z,33.37
2018-09-30T09:26:36.230Z,33.36
2018-09-30T09:29:04.125Z,33.45
2018-09-30T09:31:31.674Z,33.96
2018-09-30T09:33:59.212Z,33.60
2018-09-30T09:36:27.105Z,32.92
2018-09-30T09:38:54.645Z,32.85
2018-09-30T09:41:22.186Z,32.58
2018-09-30T09:43:49.819Z,32.27
2018-09-30T09:46:17.399Z,33.05
2018-09-30T09:48:44.943Z,32.64
2018-09-30T09:51:12.481Z,32.05
2018-09-30T09:53:40.082Z,31.32
2018-09-30T09:56:07.630Z,31.32
2018-09-30T09:58:35.189Z,31.10
2018-09-30T10:01:05.127Z,32.46
2018-09-30T10:03:32.657Z,31.65
2018-09-30T10:06:00.457Z,32.21
2018-09-30T10:08:27.993Z,33.25
2018-09-30T10:10:55.562Z,33.22
2018-09-30T10:13:23.202Z,33.77
2018-09-30T10:15:50.740Z,34.44
2018-09-30T10:18:18.313Z,34.37
2018-09-30T10:20:45.873Z,34.56
2018-09-30T10:23:13.658Z,34.11
2018-09-30T10:25:41.233Z,34.61
2018-09-30T10:28:08.779Z,34.85
2018-09-30T10:30:36.353Z,34.30
2018-09-30T10:33:03.938Z,34.50
2018-09-30T10:35:31.794Z,34.09
2018-09-30T10:37:59.386Z,34.17
2018-09-30T10:40:26.966Z,34.63
2018-09-30T10:42:54.581Z,34.49
2018-09-30T10:45:22.119Z,34.18
2018-09-30T10:47:49.709Z,33.46
2018-09-30T10:50:17.594Z,33.50
2018-09-30T10:52:45.200Z,32.90
2018-09-30T10:55:12.855Z,32.13
2018-09-30T10:57:40.417Z,30.82
2018-09-30T11:00:08.003Z,30.58
2018-09-30T11:02:35.642Z,29.62
2018-09-30T11:05:03.238Z,29.14
2018-09-30T11:07:31.070Z,28.98
2018-09-30T11:09:58.671Z,29.11
2018-09-30T11:12:26.229Z,28.91
2018-09-30T11:14:53.863Z,28.58
2018-09-30T11:17:21.404Z,28.30
2018-09-30T11:19:48.952Z,27.54
2018-09-30T11:22:16.570Z,27.31
2018-09-30T11:24:44.147Z,26.93
2018-09-30T11:27:11.695Z,26.69
2018-09-30T11:29:39.267Z,26.43
2018-09-30T11:32:06.866Z,26.24
2018-09-30T11:34:34.476Z,26.35
2018-09-30T11:37:02.019Z,26.08
2018-09-30T11:39:29.564Z,25.81
2018-09-30T11:41:57.130Z,26.04
2018-09-30T11:44:24.682Z,25.84
2018-09-30T11:46:52.570Z,25.86
2018-09-30T11:49:20.106Z,25.68
2018-09-30T11:51:47.639Z,25.84
2018-09-30T11:54:15.267Z,25.80
2018-09-30T11:56:42.778Z,25.81
2018-09-30T11:59:10.342Z,25.75
2018-09-30T12:01:37.918Z,25.58
2018-09-30T12:04:05.767Z,24.87
2018-09-30T12:06:33.602Z,25.02
2018-09-30T12:09:01.206Z,24.82
2018-09-30T12:11:28.814Z,24.74
2018-09-30T12:13:56.412Z,24.77
2018-09-30T12:16:23.981Z,24.76
2018-09-30T12:18:51.887Z,24.57
2018-09-30T12:21:19.385Z,24.76
2018-09-30T12:23:46.954Z,24.76
2018-09-30T12:26:14.521Z,24.92
2018-09-30T12:28:42.057Z,24.84
2018-09-30T12:31:09.609Z,24.62
2018-09-30T12:33:37.163Z,24.24
2018-09-30T12:36:05.003Z,24.04
2018-09-30T12:38:32.584Z,23.96
2018-09-30T12:41:00.163Z,24.04
2018-09-30T12:43:27.709Z,23.95
2018-09-30T12:45:55.267Z,24.13
2018-09-30T12:48:22.802Z,23.97
2018-09-30T12:50:50.577Z,23.95
2018-09-30T12:53:18.158Z,23.83
2018-09-30T12:55:45.721Z,24.09
2018-09-30T12:58:13.649Z,24.10
2018-09-30T13:00:41.173Z,24.49
2018-09-30T13:03:08.712Z,24.68
2018-09-30T13:05:36.611Z,24.45
2018-09-30T13:08:04.176Z,23.96
2018-09-30T13:10:31.718Z,24.06
2018-09-30T13:12:59.581Z,23.89
2018-09-30T13:15:27.700Z,24.03
2018-09-30T13:17:55.468Z,23.87
2018-09-30T13:20:23.083Z,23.81
2018-09-30T13:22:50.650Z,23.90
2018-09-30T13:25:18.196Z,23.95
2018-09-30T13:27:45.737Z,23.77
2018-09-30T13:30:13.282Z,23.66
2018-09-30T13:32:40.852Z,23.56
2018-09-30T13:35:08.664Z,23.62
2018-09-30T13:37:36.198Z,23.52
2018-09-30T13:40:04.135Z,23.51
2018-09-30T13:42:31.645Z,23.45
2018-09-30T13:44:59.659Z,23.20
2018-09-30T13:47:27.291Z,22.96
2018-09-30T13:49:54.842Z,23.09
2018-09-30T13:52:25.408Z,23.36
2018-09-30T13:54:53.196Z,23.08
2018-09-30T13:57:20.773Z,23.06
2018-09-30T13:59:48.359Z,22.74
2018-09-30T14:02:15.938Z,22.75
2018-09-30T14:04:43.820Z,22.72
2018-09-30T14:07:11.352Z,22.62
2018-09-30T14:09:38.935Z,22.45
2018-09-30T14:12:06.505Z,22.41
2018-09-30T14:14:34.069Z,22.41
2018-09-30T14:17:01.635Z,22.36
2018-09-30T14:19:29.171Z,22.43
2018-09-30T14:21:56.731Z,22.29
2018-09-30T14:24:24.283Z,22.08
2018-09-30T14:26:51.904Z,21.90
2018-09-30T14:29:19.489Z,21.98
2018-09-30T14:31:47.062Z,22.18
2018-09-30T14:34:14.680Z,22.04
2018-09-30T14:36:43.129Z,22.08
2018-09-30T14:39:12.509Z,22.03
2018-09-30T14:41:40.063Z,21.97
2018-09-30T14:44:08.126Z,22.04
2018-09-30T14:46:36.144Z,21.98
2018-09-30T14:49:03.729Z,21.90
2018-09-30T14:51:31.313Z,21.81
2018-09-30T14:53:58.865Z,21.69
2018-09-30T14:56:26.443Z,21.74
2018-09-30T14:58:54.022Z,21.70
2018-09-30T15:01:21.630Z,21.65
2018-09-30T15:03:49.196Z,21.61
2018-09-30T15:06:16.747Z,21.43
2018-09-30T15:08:44.567Z,21.36
2018-09-30T15:11:12.158Z,21.40
2018-09-30T15:13:39.715Z,21.41
2018-09-30T15:16:07.654Z,21.44
2018-09-30T15:18:35.222Z,21.51
2018-09-30T15:21:02.792Z,21.46
2018-09-30T15:23:30.367Z,21.41
2018-09-30T15:25:58.058Z,21.53
2018-09-30T15:28:25.620Z,21.55
2018-09-30T15:30:53.217Z,21.57
2018-09-30T15:33:20.779Z,21.63
2018-09-30T15:35:48.351Z,21.65
2018-09-30T15:38:16.212Z,21.53
2018-09-30T15:40:43.762Z,21.38
2018-09-30T15:43:11.306Z,21.22
2018-09-30T15:45:38.885Z,21.22
2018-09-30T15:48:06.487Z,21.24
2018-09-30T15:50:34.060Z,21.04
2018-09-30T15:53:01.634Z,20.83
2018-09-30T15:55:29.246Z,20.67
2018-09-30T15:57:56.831Z,20.77
2018-09-30T16:00:24.426Z,20.75
2018-09-30T16:02:52.037Z,20.65
2018-09-30T16:05:19.650Z,20.62
2018-09-30T16:07:47.214Z,20.59
2018-09-30T16:10:14.814Z,20.49
2018-09-30T16:12:42.381Z,20.42
2018-09-30T16:15:09.959Z,20.43
2018-09-30T16:17:37.548Z,20.42
2018-09-30T16:20:05.234Z,20.38
2018-09-30T16:22:32.863Z,20.40
2018-09-30T16:25:00.419Z,20.34
2018-09-30T16:27:27.992Z,20.29
2018-09-30T16:29:55.588Z,20.25
2018-09-30T16:32:23.164Z,20.29
2018-09-30T16:34:50.723Z,20.22
2018-09-30T16:37:18.338Z,20.21
2018-09-30T16:39:45.882Z,20.21
2018-09-30T16:42:13.498Z,20.15
2018-09-30T16:44:41.055Z,20.08
2018-09-30T16:47:08.642Z,20.12
2018-09-30T16:49:36.211Z,20.01
2018-09-30T16:52:03.818Z,20.01
2018-09-30T16:54:31.415Z,19.96
2018-09-30T16:56:58.975Z,19.88
2018-09-30T16:59:26.566Z,19.92
2018-09-30T17:01:54.122Z,19.88
2018-09-30T17:04:21.730Z,19.77
2018-09-30T17:06:49.300Z,19.72
2018-09-30T17:09:16.991Z,19.68
2018-09-30T17:11:44.573Z,19.65
2018-09-30T17:14:12.144Z,19.69
2018-09-30T17:16:39.758Z,19.65
2018-09-30T17:19:07.405Z,19.61
2018-09-30T17:21:34.999Z,19.57
2018-09-30T17:24:02.548Z,19.50
2018-09-30T17:26:30.146Z,19.45
2018-09-30T17:28:57.769Z,19.46
2018-09-30T17:31:25.408Z,19.42
2018-09-30T17:33:52.948Z,19.36
2018-09-30T17:36:20.530Z,19.31
2018-09-30T17:38:48.083Z,19.21
2018-09-30T17:41:15.694Z,19.21
2018-09-30T17:43:43.377Z,19.16
2018-09-30T17:46:10.986Z,19.02
2018-09-30T17:48:38.634Z,19.00
2018-09-30T17:51:06.292Z,18.95
2018-09-30T17:53:33.835Z,18.93
2018-09-30T17:56:01.439Z,18.86
2018-09-30T17:58:29.031Z,18.81
2018-09-30T18:00:56.620Z,18.78
2018-09-30T18:03:24.192Z,18.73
2018-09-30T18:05:51.762Z,18.72
2018-09-30T18:08:19.331Z,18.64
2018-09-30T18:10:46.971Z,18.50
2018-09-30T18:13:14.520Z,18.57
2018-09-30T18:15:42.184Z,18.55
2018-09-30T18:18:09.775Z,18.50
2018-09-30T18:20:37.407Z,18.14
2018-09-30T18:23:05.118Z,17.97
2018-09-30T18:25:32.702Z,17.95
2018-09-30T18:28:00.254Z,17.89
2018-09-30T18:30:27.845Z,17.75
2018-09-30T18:32:55.454Z,17.66
2018-09-30T18:35:23.054Z,17.52
2018-09-30T18:37:50.898Z,17.37
2018-09-30T18:40:19.020Z,17.65
2018-09-30T18:42:46.526Z,17.34
2018-09-30T18:45:14.101Z,17.19
2018-09-30T18:47:41.715Z,17.21
2018-09-30T18:50:09.376Z,17.19
2018-09-30T18:52:36.949Z,17.24
2018-09-30T18:55:04.601Z,17.01
2018-09-30T18:57:32.175Z,16.94
2018-09-30T18:59:59.795Z,16.79
2018-09-30T19:02:27.390Z,16.69
2018-09-30T19:04:55.004Z,16.62
2018-09-30T19:07:22.611Z,16.57
2018-09-30T19:09:50.196Z,16.58
2018-09-30T19:12:17.815Z,16.52
2018-09-30T19:14:45.395Z,16.69
2018-09-30T19:17:12.999Z,16.52
2018-09-30T19:19:40.618Z,16.53
2018-09-30T19:22:08.357Z,16.45
2018-09-30T19:24:35.943Z,16.33
2018-09-30T19:27:03.585Z,16.34
2018-09-30T19:29:31.145Z,16.37
2018-09-30T19:31:58.748Z,16.33
2018-09-30T19:34:26.320Z,16.34
2018-09-30T19:36:53.924Z,16.23
2018-09-30T19:39:21.535Z,16.18
2018-09-30T19:41:49.220Z,16.05
2018-09-30T19:44:16.716Z,15.96
2018-09-30T19:46:44.267Z,15.98
2018-09-30T19:49:11.846Z,15.91
2018-09-30T19:51:39.447Z,15.90
2018-09-30T19:54:07.043Z,15.87
2018-09-30T19:56:34.584Z,15.88
2018-09-30T19:59:02.167Z,15.87
2018-09-30T20:01:29.776Z,15.96
2018-09-30T20:03:57.344Z,15.96
2018-09-30T20:06:24.989Z,15.84
2018-09-30T20:08:52.535Z,15.63
2018-09-30T20:11:20.143Z,15.34
2018-09-30T20:13:47.739Z,15.64
2018-09-30T20:16:15.279Z,15.50
2018-09-30T20:18:42.855Z,15.34
2018-09-30T20:21:10.463Z,15.24
2018-09-30T20:23:38.362Z,15.15
2018-09-30T20:26:05.962Z,15.29
2018-09-30T20:28:33.542Z,15.22
2018-09-30T20:31:01.129Z,15.04
2018-09-30T20:33:28.725Z,14.77
2018-09-30T20:35:56.310Z,14.60
2018-09-30T20:38:23.881Z,14.58
2018-09-30T20:40:51.427Z,14.64
2018-09-30T20:43:18.994Z,14.65
2018-09-30T20:45:46.544Z,14.70
2018-09-30T20:48:14.207Z,14.64
2018-09-30T20:50:41.751Z,14.71
2018-09-30T20:53:09.347Z,14.67
2018-09-30T20:55:36.873Z,14.62
2018-09-30T20:58:04.426Z,14.64
2018-09-30T21:00:32.067Z,14.73
2018-09-30T21:02:59.891Z,14.73
2018-09-30T21:05:33.211Z,14.69
2018-09-30T21:08:01.730Z,14.67
2018-09-30T21:10:29.350Z,14.65
2018-09-30T21:12:56.892Z,14.72
2018-09-30T21:15:24.513Z,14.79
2018-09-30T21:17:52.055Z,14.81
2018-09-30T21:20:19.614Z,14.84
2018-09-30T21:22:47.155Z,14.87
2018-09-30T21:25:14.716Z,14.82
2018-09-30T21:27:42.246Z,14.88
2018-09-30T21:30:09.785Z,14.87
2018-09-30T21:32:37.334Z,14.85
2018-09-30T21:35:04.912Z,14.90
2018-09-30T21:37:32.453Z,14.81
2018-09-30T21:40:00.011Z,14.96
2018-09-30T21:42:27.610Z,14.94
2018-09-30T21:44:55.135Z,14.85
2018-09-30T21:47:22.705Z,14.61
2018-09-30T21:49:50.241Z,14.61
2018-09-30T21:52:17.831Z,14.63
2018-09-30T21:54:45.342Z,14.63
2018-09-30T21:57:12.912Z,14.79
2018-09-30T21:59:40.467Z,14.76
2018-09-30T22:02:08.014Z,14.64
2018-09-30T22:04:35.589Z,14.56
2018-09-30T22:07:03.147Z,14.56
2018-09-30T22:09:31.167Z,14.59
2018-09-30T22:11:58.718Z,14.43
2018-09-30T22:14:26.314Z,14.42
2018-09-30T22:16:53.880Z,14.40
2018-09-30T22:19:21.761Z,14.43
2018-09-30T22:21:49.240Z,14.46
2018-09-30T22:24:16.806Z,14.50
2018-09-30T22:26:44.355Z,14.57
2018-09-30T22:29:11.887Z,14.54
2018-09-30T22:31:39.454Z,14.52
2018-09-30T22:34:07.054Z,14.53
2018-09-30T22:36:34.590Z,14.65
2018-09-30T22:39:02.225Z,14.56
2018-09-30T22:41:29.759Z,14.51
2018-09-30T22:43:57.326Z,14.51
2018-09-30T22:46:24.971Z,14.46
2018-09-30T22:48:52.491Z,14.52
2018-09-30T22:51:20.027Z,14.50
2018-09-30T22:53:47.572Z,14.48
2018-09-30T22:56:15.422Z,14.40
2018-09-30T22:58:42.997Z,14.28
2018-09-30T23:01:10.521Z,14.21
2018-09-30T23:03:38.346Z,14.25
2018-09-30T23:06:05.975Z,14.17
2018-09-30T23:08:33.566Z,14.11
2018-09-30T23:11:01.153Z,14.05
2018-09-30T23:13:28.679Z,13.95
2018-09-30T23:15:56.238Z,13.96
2018-09-30T23:18:23.804Z,13.87
2018-09-30T23:20:51.606Z,13.85
2018-09-30T23:23:19.191Z,13.93
2018-09-30T23:25:46.742Z,13.97
2018-09-30T23:28:14.324Z,13.88
2018-09-30T23:30:41.842Z,13.95
2018-09-30T23:33:09.416Z,13.96
2018-09-30T23:35:36.954Z,13.93
2018-09-30T23:38:04.492Z,13.94
2018-09-30T23:40:32.389Z,13.96
2018-09-30T23:42:59.935Z,13.98
2018-09-30T23:45:27.459Z,13.99
2018-09-30T23:47:55.055Z,13.89
2018-09-30T23:50:22.578Z,13.92
2018-09-30T23:52:50.142Z,13.88
2018-09-30T23:55:17.653Z,13.93
2018-09-30T23:57:45.220Z,13.99
